Time;durP1;ratioP1;P1;durP2;ratioP2;P2;SDS_P1;SDS_P2;PMS_P1;PMS_P2;Temp;Humidity;BMP_temperature;BMP_pressure;BME280_temperature;BME280_humidity;BME280_pressure;Samples;Min_cycle;Max_cycle;Signal;HPM_P1;HPM_P2
2022/01/28 00:01:33;;;;;;;8.13;4.40;;;1.70;98.00;;;;;;5036933;28;20033;-68
2022/01/28 00:04:11;;;;;;;7.40;4.18;;;1.70;98.00;;;;;;5036244;28;20035;-68
2022/01/28 00:06:41;;;;;;;7.25;3.63;;;1.70;98.00;;;;;;5036820;28;20021;-70
2022/01/28 00:09:07;;;;;;;10.40;5.47;;;1.70;98.00;;;;;;5036760;28;20049;-70
2022/01/28 00:11:33;;;;;;;8.07;4.35;;;1.70;98.00;;;;;;5047845;28;20100;-69
2022/01/28 00:14:27;;;;;;;6.78;3.88;;;1.80;98.00;;;;;;5045883;28;20071;-70
2022/01/28 00:38:47;;;;;;;5.63;3.58;;;1.90;98.00;;;;;;5053958;28;20084;-69
2022/01/28 00:41:13;;;;;;;4.65;2.72;;;1.90;98.00;;;;;;5052527;28;20051;-68
2022/01/28 00:43:39;;;;;;;5.30;3.35;;;1.90;98.00;;;;;;5048910;28;20448;-68
2022/01/28 00:46:05;;;;;;;5.78;3.42;;;1.90;98.00;;;;;;5052478;28;20025;-69
2022/01/28 00:48:34;;;;;;;5.68;3.00;;;1.90;98.00;;;;;;5037408;28;20017;-69
2022/01/28 00:51:00;;;;;;;5.85;3.00;;;1.90;98.00;;;;;;5040106;28;20040;-69
2022/01/28 00:53:25;;;;;;;6.80;4.15;;;1.80;98.00;;;;;;5050621;28;20049;-68
2022/01/28 00:55:54;;;;;;;6.38;3.55;;;1.80;98.00;;;;;;5050999;28;20112;-70
2022/01/28 00:58:22;;;;;;;6.18;3.30;;;1.80;98.00;;;;;;5049514;28;20027;-69
2022/01/28 01:00:48;;;;;;;6.25;3.75;;;1.70;98.00;;;;;;5040115;28;20021;-70
2022/01/28 01:03:14;;;;;;;6.25;3.28;;;1.70;98.00;;;;;;5048926;28;20323;-69
2022/01/28 01:05:39;;;;;;;6.18;3.50;;;1.80;98.00;;;;;;5050995;28;20025;-70
2022/01/28 01:08:09;;;;;;;6.00;3.60;;;1.70;98.00;;;;;;5039367;28;20441;-69
2022/01/28 01:10:36;;;;;;;7.03;3.63;;;1.70;98.00;;;;;;5052033;28;20337;-69
2022/01/28 01:13:03;;;;;;;7.93;4.28;;;1.70;98.00;;;;;;5048679;28;20033;-71
2022/01/28 01:15:34;;;;;;;6.63;3.80;;;1.70;98.00;;;;;;5050394;28;20044;-69
2022/01/28 01:18:08;;;;;;;8.88;5.30;;;1.70;98.00;;;;;;5042708;28;20023;-69
2022/01/28 01:20:51;;;;;;;8.15;4.30;;;1.70;98.00;;;;;;5037363;28;20108;-69
2022/01/28 01:25:54;;;;;;;7.70;4.10;;;1.70;98.00;;;;;;5048757;28;20047;-69
2022/01/28 01:28:22;;;;;;;6.75;3.78;;;1.70;98.00;;;;;;5044776;28;20436;-69
2022/01/28 01:30:48;;;;;;;6.85;3.72;;;1.70;98.00;;;;;;5045593;28;20021;-69
2022/01/28 01:33:16;;;;;;;7.28;4.00;;;1.70;98.00;;;;;;5045290;28;20031;-69
2022/01/28 01:35:42;;;;;;;6.38;3.65;;;1.70;98.00;;;;;;5038639;28;20426;-69
2022/01/28 01:38:10;;;;;;;6.93;3.92;;;1.70;98.00;;;;;;5044151;28;21534;-69
2022/01/28 01:40:48;;;;;;;6.82;4.05;;;1.70;98.00;;;;;;5041104;28;20022;-69
2022/01/28 01:44:05;;;;;;;8.70;4.90;;;1.70;98.00;;;;;;5039544;28;20029;-69
2022/01/28 01:54:06;;;;;;;9.37;5.07;;;1.70;98.00;;;;;;5048858;28;19982;-70
2022/01/28 01:56:33;;;;;;;7.40;4.90;;;1.70;98.00;;;;;;5046839;28;20272;-70
2022/01/28 01:59:00;;;;;;;9.63;5.03;;;1.60;98.00;;;;;;5045436;28;20033;-69
2022/01/28 02:01:26;;;;;;;8.10;5.45;;;1.70;98.00;;;;;;5041420;28;20021;-69
2022/01/28 02:03:52;;;;;;;9.85;5.75;;;1.70;98.00;;;;;;5041635;28;20025;-70
2022/01/28 02:06:19;;;;;;;8.82;6.10;;;1.70;98.00;;;;;;5041909;28;20033;-69
2022/01/28 02:08:48;;;;;;;10.52;5.60;;;1.70;98.00;;;;;;5038469;28;20022;-70
2022/01/28 02:11:14;;;;;;;10.73;6.05;;;1.70;98.00;;;;;;5038866;28;20377;-69
2022/01/28 02:13:50;;;;;;;10.20;6.18;;;1.70;98.00;;;;;;5045835;28;20026;-69
2022/01/28 02:16:17;;;;;;;9.43;5.88;;;1.70;98.00;;;;;;5044151;28;20048;-69
2022/01/28 02:18:42;;;;;;;10.25;6.15;;;1.70;98.00;;;;;;5043958;28;20299;-70
2022/01/28 02:21:11;;;;;;;10.70;6.70;;;1.70;98.00;;;;;;5046043;28;20048;-69
2022/01/28 02:23:37;;;;;;;11.90;8.73;;;1.80;98.00;;;;;;5046654;28;20083;-70
2022/01/28 02:26:04;;;;;;;12.38;8.30;;;1.70;98.00;;;;;;5054520;28;20555;-69
2022/01/28 02:28:34;;;;;;;11.30;7.28;;;1.70;98.00;;;;;;5050716;28;20021;-70
2022/01/28 02:31:05;;;;;;;19.23;7.40;;;1.70;98.00;;;;;;5042129;28;21342;-69
2022/01/28 02:33:31;;;;;;;11.40;7.60;;;1.70;98.00;;;;;;5047140;28;20107;-69
2022/01/28 02:36:03;;;;;;;13.13;7.68;;;1.70;98.00;;;;;;5048571;28;20151;-69
2022/01/28 02:38:29;;;;;;;13.25;7.40;;;1.70;98.00;;;;;;5040286;28;20087;-70
2022/01/28 02:40:58;;;;;;;12.77;7.28;;;1.80;98.00;;;;;;5045789;28;20311;-69
2022/01/28 02:43:41;;;;;;;12.18;7.30;;;1.80;98.00;;;;;;5052514;28;20021;-69
2022/01/28 02:46:17;;;;;;;13.18;7.97;;;1.80;98.00;;;;;;5049064;28;20399;-69
2022/01/28 02:51:38;;;;;;;13.57;8.65;;;1.70;98.00;;;;;;5038837;28;20021;-68
2022/01/28 02:54:17;;;;;;;10.55;7.40;;;1.70;98.00;;;;;;5061547;28;20485;-68
2022/01/28 02:56:50;;;;;;;12.80;8.30;;;1.70;98.00;;;;;;5049760;28;20352;-68
2022/01/28 02:59:15;;;;;;;13.98;8.65;;;1.70;98.00;;;;;;5046777;28;20078;-68
2022/01/28 03:01:41;;;;;;;12.80;8.43;;;1.70;98.00;;;;;;5044379;28;20354;-70
2022/01/28 03:04:10;;;;;;;14.57;8.95;;;1.70;98.00;;;;;;5055877;28;20032;-69
2022/01/28 03:06:36;;;;;;;14.02;8.93;;;1.70;98.00;;;;;;5043098;28;20052;-70
2022/01/28 03:09:16;;;;;;;14.23;8.23;;;1.70;98.00;;;;;;5048448;28;20049;-70
2022/01/28 03:11:44;;;;;;;13.77;9.18;;;1.70;98.00;;;;;;5051465;28;20108;-68
2022/01/28 03:19:50;;;;;;;15.38;9.18;;;1.70;98.00;;;;;;5050253;28;20134;-70
2022/01/28 03:22:16;;;;;;;17.42;9.75;;;1.60;98.00;;;;;;5058040;28;20024;-69
2022/01/28 03:24:42;;;;;;;17.05;10.20;;;1.60;98.00;;;;;;5051106;28;20034;-68
2022/01/28 03:27:16;;;;;;;15.45;9.77;;;1.60;98.00;;;;;;5063768;28;20031;-69
2022/01/28 03:29:43;;;;;;;15.82;10.35;;;1.50;98.00;;;;;;5040746;28;20065;-69
2022/01/28 03:32:12;;;;;;;14.57;9.57;;;1.50;98.00;;;;;;5053484;28;20071;-70
2022/01/28 03:34:37;;;;;;;19.58;10.18;;;1.50;98.00;;;;;;5045987;28;20365;-69
2022/01/28 03:37:05;;;;;;;14.57;9.10;;;1.40;98.00;;;;;;5049454;28;20041;-68
2022/01/28 03:39:30;;;;;;;17.17;10.50;;;1.40;97.90;;;;;;5047303;28;20055;-69
2022/01/28 03:41:56;;;;;;;16.73;9.88;;;1.30;98.00;;;;;;5046741;28;20029;-69
2022/01/28 03:44:22;;;;;;;20.38;11.55;;;1.30;98.00;;;;;;5043633;28;20058;-70
2022/01/28 03:46:47;;;;;;;17.13;10.32;;;1.10;98.00;;;;;;5045711;28;20473;-68
2022/01/28 03:49:13;;;;;;;21.95;11.85;;;1.00;97.30;;;;;;5045291;28;20032;-69
2022/01/28 03:51:39;;;;;;;17.70;9.88;;;0.90;97.20;;;;;;5044160;28;20372;-69
2022/01/28 03:54:04;;;;;;;19.08;11.00;;;0.80;97.10;;;;;;5045109;28;20025;-69
2022/01/28 03:56:30;;;;;;;16.08;9.50;;;0.80;96.40;;;;;;5044376;28;20659;-69
2022/01/28 03:58:56;;;;;;;14.48;10.05;;;0.80;96.40;;;;;;5039127;28;20128;-69
2022/01/28 04:01:28;;;;;;;14.63;9.30;;;0.90;96.50;;;;;;5046412;28;20017;-68
2022/01/28 04:11:52;;;;;;;21.77;10.43;;;1.20;98.00;;;;;;5046046;28;20060;-68
2022/01/28 04:19:28;;;;;;;17.70;9.27;;;1.20;98.00;;;;;;5042199;28;20163;-69
2022/01/28 04:21:53;;;;;;;17.13;9.90;;;1.20;98.00;;;;;;5044171;28;20100;-69
2022/01/28 04:24:19;;;;;;;16.75;10.43;;;1.20;98.00;;;;;;5043687;28;20045;-69
2022/01/28 04:26:48;;;;;;;17.98;10.38;;;1.20;98.00;;;;;;5049919;28;20112;-69
2022/01/28 04:29:14;;;;;;;15.57;9.93;;;1.20;98.00;;;;;;5044426;28;20021;-69
2022/01/28 04:31:43;;;;;;;16.83;9.90;;;1.30;98.00;;;;;;5055481;28;20415;-69
2022/01/28 04:34:10;;;;;;;18.77;11.05;;;1.30;98.00;;;;;;5051280;28;20349;-70
2022/01/28 04:36:48;;;;;;;19.95;10.38;;;1.30;98.00;;;;;;5051332;28;20055;-69
2022/01/28 04:39:23;;;;;;;16.60;10.82;;;1.30;98.00;;;;;;5046902;28;20028;-69
2022/01/28 04:44:24;;;;;;;18.45;11.02;;;1.30;98.00;;;;;;5044115;28;20044;-69
2022/01/28 04:47:02;;;;;;;20.52;10.65;;;1.20;98.00;;;;;;5043067;28;20025;-69
2022/01/28 04:49:52;;;;;;;19.05;11.15;;;1.10;98.00;;;;;;5042954;28;20422;-69
2022/01/28 05:03:29;;;;;;;23.27;13.95;;;1.20;98.00;;;;;;5037490;28;20113;-70
2022/01/28 05:27:19;;;;;;;18.80;11.82;;;1.30;98.00;;;;;;5055356;28;20031;-70
2022/01/28 05:29:48;;;;;;;20.63;12.50;;;1.30;98.00;;;;;;5045094;28;20372;-70
2022/01/28 05:32:14;;;;;;;21.88;12.45;;;1.20;98.00;;;;;;5035848;28;20017;-70
2022/01/28 05:34:40;;;;;;;21.38;12.98;;;1.20;97.80;;;;;;5041960;28;20040;-69
2022/01/28 05:37:07;;;;;;;24.52;14.00;;;1.20;97.30;;;;;;5039286;28;20075;-70
2022/01/28 05:39:34;;;;;;;23.45;13.93;;;1.10;97.20;;;;;;5041651;28;20033;-70
2022/01/28 05:42:02;;;;;;;27.38;14.25;;;1.10;96.70;;;;;;5044929;28;20028;-70
2022/01/28 05:44:28;;;;;;;29.17;15.80;;;1.10;96.20;;;;;;5044367;28;20025;-69
2022/01/28 05:46:56;;;;;;;29.67;15.20;;;1.00;95.70;;;;;;5036625;28;20079;-69
2022/01/28 05:49:23;;;;;;;26.35;15.40;;;1.00;95.90;;;;;;5037578;28;20021;-69
2022/01/28 05:51:50;;;;;;;28.17;16.20;;;0.90;95.40;;;;;;5045265;28;20029;-68
2022/01/28 05:54:16;;;;;;;29.77;16.15;;;0.90;95.40;;;;;;5038467;28;20028;-68
2022/01/28 05:56:42;;;;;;;30.63;16.50;;;0.80;95.10;;;;;;5047883;28;20021;-69
2022/01/28 05:59:07;;;;;;;33.60;17.40;;;0.70;95.20;;;;;;5044955;28;20090;-70
2022/01/28 06:01:33;;;;;;;37.50;18.90;;;0.70;94.60;;;;;;5042345;28;20061;-70
2022/01/28 06:03:59;;;;;;;36.25;19.02;;;0.60;94.60;;;;;;5036805;28;20033;-70
2022/01/28 06:06:25;;;;;;;38.35;17.73;;;0.50;94.00;;;;;;5045362;28;20361;-70
2022/01/28 06:08:53;;;;;;;35.00;17.65;;;0.50;93.40;;;;;;5043849;28;20025;-71
2022/01/28 06:11:19;;;;;;;39.72;20.13;;;0.40;93.30;;;;;;5048061;28;20100;-70
2022/01/28 06:13:45;;;;;;;29.13;17.30;;;0.40;92.50;;;;;;5054381;28;20021;-69
2022/01/28 06:16:12;;;;;;;31.95;17.52;;;0.30;91.90;;;;;;5041091;28;20079;-69
2022/01/28 06:18:38;;;;;;;36.58;18.17;;;0.30;92.10;;;;;;5045250;28;20032;-69
2022/01/28 06:21:04;;;;;;;31.60;17.70;;;0.40;91.70;;;;;;5047282;28;20502;-69
2022/01/28 06:23:30;;;;;;;31.15;17.40;;;0.40;91.90;;;;;;5048829;28;20135;-69
2022/01/28 06:25:56;;;;;;;37.10;17.55;;;0.30;91.70;;;;;;5042534;28;20037;-69
2022/01/28 06:28:22;;;;;;;34.30;17.67;;;0.20;92.00;;;;;;5044467;28;20025;-69
2022/01/28 06:30:47;;;;;;;26.02;14.43;;;0.10;92.00;;;;;;5051021;28;20024;-69
2022/01/28 06:33:14;;;;;;;25.30;14.70;;;0.10;91.60;;;;;;5052201;28;20056;-69
2022/01/28 06:35:41;;;;;;;26.85;15.00;;;0.00;91.10;;;;;;5043976;28;20024;-69
2022/01/28 06:38:07;;;;;;;22.05;12.45;;;-0.10;92.00;;;;;;5047253;28;20433;-70
2022/01/28 06:40:32;;;;;;;27.45;14.98;;;-0.10;91.50;;;;;;5036247;28;20060;-69
2022/01/28 06:42:58;;;;;;;26.00;14.77;;;-0.10;91.20;;;;;;5040310;28;20036;-69
2022/01/28 06:45:24;;;;;;;24.00;13.35;;;-0.20;91.50;;;;;;5036178;28;20038;-69
2022/01/28 06:47:49;;;;;;;26.00;15.00;;;-0.20;91.70;;;;;;5040071;28;20049;-70
2022/01/28 06:50:15;;;;;;;23.67;14.15;;;-0.20;91.40;;;;;;5043965;28;20022;-69
2022/01/28 06:52:42;;;;;;;28.23;15.18;;;-0.20;91.10;;;;;;5035221;28;20025;-69
2022/01/28 06:55:10;;;;;;;34.28;16.88;;;-0.10;90.50;;;;;;5035013;28;20088;-70
2022/01/28 06:57:35;;;;;;;33.00;15.07;;;-0.10;90.60;;;;;;5047637;28;20028;-69
2022/01/28 07:00:06;;;;;;;32.90;16.55;;;0.00;90.00;;;;;;5055102;28;20035;-70
2022/01/28 07:02:31;;;;;;;28.63;15.57;;;0.20;89.80;;;;;;5047813;28;20029;-69
2022/01/28 07:04:58;;;;;;;28.90;16.10;;;0.20;90.00;;;;;;5039596;28;20035;-70
2022/01/28 07:07:25;;;;;;;36.95;18.33;;;0.30;89.50;;;;;;5038453;28;20023;-70
2022/01/28 07:09:52;;;;;;;31.55;16.80;;;0.30;89.80;;;;;;5049848;28;20021;-70
2022/01/28 07:12:18;;;;;;;38.40;18.70;;;0.40;89.80;;;;;;5041628;28;20076;-70
2022/01/28 07:14:44;;;;;;;38.03;19.70;;;0.40;89.70;;;;;;5038546;28;20112;-70
2022/01/28 07:17:10;;;;;;;42.35;22.63;;;0.50;89.60;;;;;;5037259;28;20076;-70
2022/01/28 07:19:35;;;;;;;37.35;19.42;;;0.50;90.00;;;;;;5043797;28;20082;-69
2022/01/28 07:22:01;;;;;;;36.10;19.25;;;0.60;89.60;;;;;;5042880;28;20097;-70
2022/01/28 07:24:29;;;;;;;31.73;17.98;;;0.60;89.80;;;;;;5041931;28;20041;-69
2022/01/28 07:26:55;;;;;;;39.08;20.08;;;0.70;90.30;;;;;;5055559;28;20452;-69
2022/01/28 07:29:24;;;;;;;35.38;21.00;;;0.70;90.60;;;;;;5051426;28;20038;-70
2022/01/28 07:31:49;;;;;;;35.97;19.60;;;0.70;90.60;;;;;;5037753;28;20099;-70
2022/01/28 07:34:15;;;;;;;36.78;18.52;;;0.70;90.90;;;;;;5038589;28;20403;-70
2022/01/28 07:36:41;;;;;;;34.85;19.20;;;0.70;90.80;;;;;;5039081;28;20057;-70
2022/01/28 07:39:07;;;;;;;35.35;19.38;;;0.70;90.70;;;;;;5041121;28;20441;-69
2022/01/28 07:41:34;;;;;;;35.28;18.25;;;0.70;91.50;;;;;;5046613;28;20025;-69
2022/01/28 07:43:59;;;;;;;43.22;19.95;;;0.70;91.50;;;;;;5038941;28;20028;-69
2022/01/28 07:46:25;;;;;;;40.33;19.25;;;0.70;91.30;;;;;;5037925;28;20025;-69
2022/01/28 07:48:51;;;;;;;84.72;32.88;;;0.70;91.60;;;;;;5041217;28;20418;-69
2022/01/28 07:51:17;;;;;;;58.83;26.85;;;0.70;91.70;;;;;;5037101;28;20105;-69
2022/01/28 07:53:43;;;;;;;30.50;18.23;;;0.60;92.20;;;;;;5037752;28;20040;-69
2022/01/28 07:56:09;;;;;;;29.27;16.75;;;0.60;91.90;;;;;;5055433;28;20033;-69
2022/01/28 07:58:37;;;;;;;30.60;15.23;;;0.60;91.70;;;;;;5057721;28;20052;-69
2022/01/28 08:01:03;;;;;;;30.75;16.73;;;0.60;91.70;;;;;;5041624;28;20057;-70
2022/01/28 08:03:29;;;;;;;35.15;18.92;;;0.60;91.80;;;;;;5046566;28;20465;-70
2022/01/28 08:05:54;;;;;;;31.33;17.42;;;0.60;91.50;;;;;;5048107;28;20037;-69
2022/01/28 08:08:25;;;;;;;33.38;18.20;;;0.70;91.60;;;;;;5057382;28;20108;-69
2022/01/28 08:10:51;;;;;;;33.10;16.73;;;0.60;92.20;;;;;;5044089;28;20033;-69
2022/01/28 08:13:17;;;;;;;25.00;15.68;;;0.60;91.70;;;;;;5043143;28;20460;-69
2022/01/28 08:15:43;;;;;;;30.58;16.13;;;0.70;91.80;;;;;;5057397;28;20372;-70
2022/01/28 08:18:10;;;;;;;31.08;15.77;;;0.60;92.90;;;;;;5048547;28;20029;-70
2022/01/28 08:20:35;;;;;;;25.15;14.25;;;0.60;92.60;;;;;;5037233;28;20410;-70
2022/01/28 08:23:01;;;;;;;31.48;17.00;;;0.60;92.40;;;;;;5041893;28;20040;-69
2022/01/28 08:25:29;;;;;;;31.95;17.27;;;0.60;92.70;;;;;;5056753;28;20048;-69
2022/01/28 08:27:55;;;;;;;28.60;15.77;;;0.70;92.40;;;;;;5052519;28;20442;-70
2022/01/28 08:30:25;;;;;;;34.70;17.50;;;0.60;93.20;;;;;;5037107;28;20479;-69
2022/01/28 08:32:52;;;;;;;24.95;14.77;;;0.70;92.80;;;;;;5040646;28;20116;-68
2022/01/28 08:35:40;;;;;;;34.05;18.30;;;0.80;92.70;;;;;;5055101;28;20511;-69
2022/01/28 08:38:14;;;;;;;26.10;15.43;;;0.90;93.30;;;;;;5041125;28;20109;-69
2022/01/28 08:40:40;;;;;;;24.42;13.40;;;1.10;93.70;;;;;;5056662;28;20057;-69
2022/01/28 08:43:06;;;;;;;19.58;11.20;;;1.30;94.30;;;;;;5049070;28;20083;-68
2022/01/28 08:45:32;;;;;;;14.60;8.95;;;1.90;92.70;;;;;;5036664;28;20418;-68
2022/01/28 08:47:57;;;;;;;13.65;8.38;;;3.10;97.30;;;;;;5041041;28;20024;-68
2022/01/28 08:50:23;;;;;;;17.15;8.93;;;4.40;98.00;;;;;;5055869;28;20028;-68
2022/01/28 08:52:48;;;;;;;16.33;9.40;;;5.90;98.00;;;;;;5042286;28;20095;-70
2022/01/28 08:55:15;;;;;;;18.00;9.82;;;6.80;93.20;;;;;;5046500;28;20104;-70
2022/01/28 08:57:48;;;;;;;14.25;8.68;;;6.20;91.40;;;;;;5038255;28;20033;-69
2022/01/28 09:00:18;;;;;;;16.35;9.57;;;5.30;93.60;;;;;;5054336;28;20040;-69
2022/01/28 09:02:50;;;;;;;12.63;7.45;;;4.50;95.70;;;;;;5043935;28;20087;-70
2022/01/28 09:05:17;;;;;;;17.02;10.50;;;4.10;97.30;;;;;;5036379;28;20036;-70
2022/01/28 09:07:43;;;;;;;15.52;8.65;;;3.70;98.00;;;;;;5046461;28;20025;-69
2022/01/28 09:10:18;;;;;;;13.63;8.32;;;3.60;98.00;;;;;;5037408;28;20104;-69
2022/01/28 09:15:41;;;;;;;15.52;10.40;;;3.20;98.00;;;;;;5056241;28;20513;-69
2022/01/28 09:18:09;;;;;;;16.90;9.95;;;3.10;98.00;;;;;;5050452;28;20372;-69
2022/01/28 09:20:36;;;;;;;21.38;12.35;;;3.00;98.00;;;;;;5053870;28;20035;-69
2022/01/28 09:23:11;;;;;;;20.40;11.13;;;3.00;98.00;;;;;;5056072;28;20418;-69
2022/01/28 09:25:41;;;;;;;19.10;10.88;;;2.90;98.00;;;;;;5039302;28;20045;-69
2022/01/28 09:28:08;;;;;;;16.65;9.35;;;2.90;98.00;;;;;;5036104;28;20028;-69
2022/01/28 09:30:34;;;;;;;17.33;9.00;;;2.80;98.00;;;;;;5050354;28;20085;-69
2022/01/28 09:33:00;;;;;;;15.05;9.68;;;2.80;98.00;;;;;;5054884;28;20104;-70
2022/01/28 09:35:32;;;;;;;15.55;8.90;;;2.90;98.00;;;;;;5047097;28;20372;-70
2022/01/28 09:37:58;;;;;;;16.10;9.27;;;2.90;98.00;;;;;;5040659;28;20021;-69
2022/01/28 09:40:24;;;;;;;17.50;9.18;;;2.90;98.00;;;;;;5048466;28;20503;-69
2022/01/28 09:42:52;;;;;;;19.92;11.45;;;2.90;98.00;;;;;;5055113;28;20033;-69
2022/01/28 09:45:23;;;;;;;15.93;9.88;;;2.90;98.00;;;;;;5046078;28;20025;-70
2022/01/28 09:47:54;;;;;;;17.38;9.73;;;3.00;98.00;;;;;;5034642;28;20018;-69
2022/01/28 09:50:22;;;;;;;18.75;9.52;;;2.90;98.00;;;;;;5045444;28;20021;-69
2022/01/28 09:52:49;;;;;;;16.50;9.25;;;3.00;98.00;;;;;;5053989;28;20028;-70
2022/01/28 09:55:15;;;;;;;16.23;9.50;;;3.10;98.00;;;;;;5040743;28;20434;-69
2022/01/28 09:57:41;;;;;;;15.40;8.50;;;3.10;98.00;;;;;;5035824;28;20041;-69
2022/01/28 10:00:09;;;;;;;16.63;9.25;;;3.10;98.00;;;;;;5053819;28;20025;-69
2022/01/28 10:02:59;;;;;;;17.58;9.50;;;3.00;98.00;;;;;;5035520;28;20041;-69
2022/01/28 10:05:30;;;;;;;17.38;9.20;;;3.10;98.00;;;;;;5052886;28;20033;-70
2022/01/28 10:08:15;;;;;;;15.00;8.93;;;3.20;98.00;;;;;;5055616;28;20025;-69
2022/01/28 10:10:50;;;;;;;15.35;7.95;;;3.30;98.00;;;;;;5035523;28;20108;-69
2022/01/28 10:13:20;;;;;;;18.27;8.50;;;3.30;98.00;;;;;;5043549;28;20021;-70
2022/01/28 10:16:13;;;;;;;16.17;7.25;;;3.30;98.00;;;;;;5044913;28;20545;-69
2022/01/28 10:18:56;;;;;;;18.30;7.15;;;3.60;98.00;;;;;;5042507;28;20048;-69
2022/01/28 10:21:36;;;;;;;15.13;6.55;;;4.10;97.20;;;;;;5049286;28;20032;-69
2022/01/28 10:24:05;;;;;;;13.38;7.18;;;4.60;95.40;;;;;;5049485;28;20045;-69
2022/01/28 10:26:34;;;;;;;12.75;6.15;;;4.80;93.80;;;;;;5047224;28;20021;-70
2022/01/28 10:29:05;;;;;;;14.45;7.25;;;4.60;93.90;;;;;;5052380;28;20148;-69
2022/01/28 10:31:38;;;;;;;13.27;6.55;;;4.50;94.10;;;;;;5035143;28;20018;-69
2022/01/28 10:34:37;;;;;;;15.35;6.80;;;4.30;94.30;;;;;;5039785;28;20410;-69
2022/01/28 10:37:27;;;;;;;13.07;6.55;;;4.30;94.30;;;;;;5043796;28;20025;-69
2022/01/28 10:39:57;;;;;;;13.65;6.90;;;4.30;94.20;;;;;;5046542;28;20304;-70
2022/01/28 10:42:25;;;;;;;15.98;8.85;;;4.20;93.80;;;;;;5047846;28;20361;-69
2022/01/28 10:44:57;;;;;;;18.60;8.73;;;4.10;95.00;;;;;;5045559;28;20056;-69
2022/01/28 10:47:56;;;;;;;18.75;7.22;;;4.50;93.90;;;;;;5044232;28;20025;-69
2022/01/28 10:50:26;;;;;;;21.00;9.13;;;4.30;93.40;;;;;;5049308;28;20033;-68
2022/01/28 10:53:11;;;;;;;13.55;6.97;;;4.40;94.30;;;;;;5047959;28;20441;-69
2022/01/28 10:55:49;;;;;;;11.18;6.10;;;4.50;92.50;;;;;;5049417;28;20087;-69
2022/01/28 10:58:17;;;;;;;14.43;6.22;;;4.60;92.20;;;;;;5045775;28;20437;-68
2022/01/28 11:00:52;;;;;;;16.88;7.40;;;4.60;91.80;;;;;;5056308;28;20090;-68
2022/01/28 11:03:26;;;;;;;12.75;5.97;;;4.40;92.60;;;;;;5044966;28;20021;-69
2022/01/28 11:05:58;;;;;;;15.95;6.50;;;4.20;92.80;;;;;;5050107;28;20037;-68
2022/01/28 11:08:31;;;;;;;14.30;6.00;;;4.10;92.50;;;;;;5048392;28;20091;-68
2022/01/28 11:10:58;;;;;;;11.67;5.47;;;3.90;91.90;;;;;;5051028;28;20086;-68
2022/01/28 11:13:28;;;;;;;15.82;7.35;;;3.80;91.60;;;;;;5056508;28;20108;-69
2022/01/28 11:15:54;;;;;;;16.67;8.63;;;3.80;92.10;;;;;;5049844;28;20033;-68
2022/01/28 11:18:20;;;;;;;14.93;7.22;;;3.90;92.60;;;;;;5049301;28;20025;-68
2022/01/28 11:21:17;;;;;;;13.30;6.10;;;4.10;93.10;;;;;;5054671;28;20049;-68
2022/01/28 11:24:07;;;;;;;17.17;6.70;;;4.10;93.70;;;;;;5043318;28;20033;-68
2022/01/28 11:26:50;;;;;;;15.95;7.43;;;4.10;93.20;;;;;;5047357;28;20021;-68
2022/01/28 11:29:28;;;;;;;13.38;6.28;;;4.20;92.10;;;;;;5039539;28;20044;-68
2022/01/28 11:32:09;;;;;;;12.73;4.85;;;5.00;90.90;;;;;;5051622;28;20025;-68
2022/01/28 11:34:36;;;;;;;11.43;5.10;;;5.30;88.50;;;;;;5047699;28;20021;-68
2022/01/28 11:37:16;;;;;;;12.05;5.47;;;5.30;88.40;;;;;;5038918;28;20033;-67
2022/01/28 11:39:46;;;;;;;12.65;5.00;;;5.10;88.10;;;;;;5039071;28;20033;-67
2022/01/28 11:42:13;;;;;;;13.32;5.55;;;4.70;89.10;;;;;;5041526;28;20093;-67
2022/01/28 11:44:48;;;;;;;11.70;5.60;;;4.70;90.30;;;;;;5045390;28;20084;-67
2022/01/28 11:47:28;;;;;;;13.02;5.75;;;4.60;89.90;;;;;;5049446;28;20029;-69
2022/01/28 11:50:08;;;;;;;12.73;5.85;;;4.60;91.40;;;;;;5045287;28;20413;-69
2022/01/28 11:52:48;;;;;;;18.30;6.45;;;4.80;90.50;;;;;;5048222;28;20074;-68
2022/01/28 11:55:17;;;;;;;14.40;6.28;;;4.40;90.20;;;;;;5041574;28;20029;-68
2022/01/28 11:57:58;;;;;;;11.40;4.88;;;4.90;90.10;;;;;;5042936;28;20091;-68
2022/01/28 12:00:25;;;;;;;9.15;4.80;;;5.20;89.70;;;;;;5037520;28;20057;-69
2022/01/28 12:02:53;;;;;;;9.38;4.53;;;5.50;88.80;;;;;;5036585;28;20033;-68
2022/01/28 12:05:39;;;;;;;10.63;5.20;;;5.20;88.50;;;;;;5050201;28;20048;-68
2022/01/28 12:08:05;;;;;;;13.25;5.30;;;4.80;89.40;;;;;;5050759;28;20033;-68
2022/01/28 12:10:33;;;;;;;12.48;6.47;;;4.80;90.50;;;;;;5050627;28;20025;-68
2022/01/28 12:13:01;;;;;;;12.43;5.65;;;4.50;91.20;;;;;;5038551;28;20029;-68
2022/01/28 12:15:57;;;;;;;13.35;5.72;;;4.10;92.40;;;;;;5038343;28;20025;-68
2022/01/28 12:18:23;;;;;;;12.43;5.68;;;3.90;92.70;;;;;;5051597;28;20033;-68
2022/01/28 12:20:53;;;;;;;15.57;5.75;;;3.60;93.40;;;;;;5044990;28;20104;-69
2022/01/28 12:23:18;;;;;;;13.55;6.38;;;3.50;93.80;;;;;;5044316;28;20113;-69
2022/01/28 12:25:44;;;;;;;9.70;5.45;;;3.60;94.10;;;;;;5053886;28;20391;-68
2022/01/28 12:28:10;;;;;;;10.88;5.70;;;3.90;93.30;;;;;;5041405;28;20030;-68
2022/01/28 12:30:37;;;;;;;12.38;5.70;;;4.10;92.50;;;;;;5045177;28;20068;-68
2022/01/28 12:33:03;;;;;;;9.65;4.95;;;4.20;92.80;;;;;;5053050;28;20021;-67
2022/01/28 12:35:29;;;;;;;11.60;5.45;;;4.40;92.60;;;;;;5046600;28;20074;-68
2022/01/28 12:38:04;;;;;;;8.48;5.18;;;4.40;92.30;;;;;;5053064;28;20032;-68
2022/01/28 12:40:36;;;;;;;10.75;5.43;;;4.10;92.70;;;;;;5036944;28;20083;-68
2022/01/28 12:43:03;;;;;;;9.88;5.20;;;3.80;93.70;;;;;;5052775;28;20040;-67
2022/01/28 12:45:30;;;;;;;10.65;5.63;;;3.50;94.50;;;;;;5050147;28;20028;-67
2022/01/28 12:48:05;;;;;;;12.02;5.18;;;3.80;95.00;;;;;;5040300;28;20033;-67
2022/01/28 12:50:33;;;;;;;10.43;5.30;;;4.60;92.60;;;;;;5046051;28;20032;-67
2022/01/28 12:53:00;;;;;;;14.65;6.32;;;4.60;91.30;;;;;;5048003;28;20024;-68
2022/01/28 12:55:33;;;;;;;12.27;5.57;;;4.50;92.30;;;;;;5047937;28;20040;-68
2022/01/28 12:58:10;;;;;;;10.05;5.60;;;4.80;91.00;;;;;;5045841;28;20030;-67
2022/01/28 13:00:38;;;;;;;11.65;5.68;;;4.60;91.00;;;;;;5038760;28;20665;-68
2022/01/28 13:03:04;;;;;;;12.60;4.97;;;4.40;91.90;;;;;;5048654;28;20036;-67
2022/01/28 13:05:35;;;;;;;11.07;5.15;;;4.10;91.40;;;;;;5039934;28;20033;-67
2022/01/28 13:10:45;;;;;;;10.23;4.88;;;4.60;91.20;;;;;;5041533;28;20036;-68
2022/01/28 13:13:15;;;;;;;11.63;6.03;;;4.80;90.30;;;;;;5040825;28;20431;-68
2022/01/28 13:15:41;;;;;;;14.38;6.72;;;4.70;90.10;;;;;;5040162;28;20030;-68
2022/01/28 13:18:07;;;;;;;14.63;6.88;;;4.60;90.70;;;;;;5054173;28;20357;-68
2022/01/28 13:20:41;;;;;;;11.05;4.72;;;4.60;90.70;;;;;;5046943;28;20054;-67
2022/01/28 13:23:09;;;;;;;15.30;5.88;;;4.70;89.40;;;;;;5046464;28;20076;-68
2022/01/28 13:25:39;;;;;;;13.65;5.13;;;4.60;89.40;;;;;;5039559;28;20038;-67
2022/01/28 13:28:12;;;;;;;10.00;5.00;;;4.50;89.70;;;;;;5036658;28;20044;-68
2022/01/28 13:30:57;;;;;;;13.75;6.43;;;4.40;89.20;;;;;;5038341;28;20045;-67
2022/01/28 13:33:28;;;;;;;15.90;7.38;;;4.40;89.20;;;;;;5059959;28;20370;-67
2022/01/28 13:36:07;;;;;;;13.45;5.65;;;4.10;89.90;;;;;;5053958;28;20330;-68
2022/01/28 13:38:39;;;;;;;18.30;10.05;;;4.10;90.50;;;;;;5038239;28;20035;-68
2022/01/28 13:41:34;;;;;;;20.75;10.65;;;4.10;90.90;;;;;;5039462;28;20034;-68
2022/01/28 13:44:00;;;;;;;16.38;8.15;;;4.20;91.00;;;;;;5051392;28;20029;-68
2022/01/28 13:46:32;;;;;;;12.45;6.22;;;4.10;91.20;;;;;;5037876;28;20159;-68
2022/01/28 13:49:01;;;;;;;15.75;8.80;;;4.00;91.70;;;;;;5065836;28;20012;-68
2022/01/28 13:51:29;;;;;;;15.63;6.70;;;3.80;92.20;;;;;;5067054;28;20017;-68
2022/01/28 13:56:30;;;;;;;13.60;6.65;;;3.80;92.60;;;;;;5044211;28;20028;-68
2022/01/28 13:58:56;;;;;;;12.95;7.18;;;3.90;92.40;;;;;;5045310;28;20040;-67
2022/01/28 14:01:25;;;;;;;11.43;6.10;;;3.70;92.50;;;;;;5049121;28;20025;-68
2022/01/28 14:03:56;;;;;;;12.25;7.30;;;3.60;92.90;;;;;;5045941;28;20047;-68
2022/01/28 14:06:33;;;;;;;11.82;6.32;;;3.60;93.40;;;;;;5036883;28;20083;-68
2022/01/28 14:09:15;;;;;;;13.48;7.38;;;3.70;93.50;;;;;;5042964;28;20052;-68
2022/01/28 14:11:51;;;;;;;11.25;6.00;;;3.70;93.40;;;;;;5043934;28;20023;-68
2022/01/28 14:14:25;;;;;;;21.17;7.85;;;3.60;93.30;;;;;;5048939;28;20033;-68
2022/01/28 14:16:54;;;;;;;;;;;3.50;93.70;;;;;;5043364;28;20045;-68
2022/01/28 14:19:21;;;;;;;13.93;6.00;;;3.50;94.20;;;;;;5039343;28;19987;-68
2022/01/28 14:21:48;;;;;;;16.40;7.95;;;3.40;94.50;;;;;;5051740;28;20017;-66
2022/01/28 14:24:28;;;;;;;14.00;7.18;;;3.40;94.80;;;;;;5043228;28;20041;-68
2022/01/28 14:29:53;;;;;;;17.92;9.02;;;3.30;95.10;;;;;;5043755;28;20017;-67
2022/01/28 14:32:26;;;;;;;16.65;7.90;;;3.30;95.60;;;;;;5045453;28;20056;-67
2022/01/28 14:34:54;;;;;;;12.73;6.72;;;3.30;95.50;;;;;;5052156;28;20031;-67
2022/01/28 14:37:22;;;;;;;14.32;6.53;;;3.30;95.00;;;;;;5054011;28;20039;-67
2022/01/28 14:39:48;;;;;;;13.00;6.38;;;3.30;94.60;;;;;;5046918;28;20083;-67